sensor_id;sensor_type;location;lat;lon;timestamp;pressure;altitude;pressure_sealevel;temperature;humidity
43741;BME280;29352;48.708;9.290;2023-03-04T00:01:44;98373.09;;;-7.54;80.24
43741;BME280;29352;48.708;9.290;2023-03-04T00:04:09;98372.66;;;-7.46;79.95
43741;BME280;29352;48.708;9.290;2023-03-04T00:06:35;98375.63;;;-7.38;81.22
43741;BME280;29352;48.708;9.290;2023-03-04T00:09:02;98373.34;;;-7.58;80.13
43741;BME280;29352;48.708;9.290;2023-03-04T00:11:29;98370.72;;;-7.28;79.82
43741;BME280;29352;48.708;9.290;2023-03-04T00:13:55;98382.78;;;-7.72;79.24
43741;BME280;29352;48.708;9.290;2023-03-04T00:16:22;98376.41;;;-7.66;81.26
43741;BME280;29352;48.708;9.290;2023-03-04T00:18:51;98379.09;;;-7.68;78.86
43741;BME280;29352;48.708;9.290;2023-03-04T00:21:20;98378.88;;;-7.79;81.30
43741;BME280;29352;48.708;9.290;2023-03-04T00:23:46;98380.44;;;-7.76;80.23
43741;BME280;29352;48.708;9.290;2023-03-04T00:26:13;98378.81;;;-7.93;79.56
43741;BME280;29352;48.708;9.290;2023-03-04T00:28:39;98373.16;;;-8.00;81.05
43741;BME280;29352;48.708;9.290;2023-03-04T00:31:06;98376.78;;;-8.02;78.49
43741;BME280;29352;48.708;9.290;2023-03-04T00:33:32;98371.06;;;-8.39;79.79
43741;BME280;29352;48.708;9.290;2023-03-04T00:35:58;98372.81;;;-8.40;79.93
43741;BME280;29352;48.708;9.290;2023-03-04T00:38:24;98373.47;;;-8.52;80.27
43741;BME280;29352;48.708;9.290;2023-03-04T00:40:50;98370.22;;;-8.55;80.24
43741;BME280;29352;48.708;9.290;2023-03-04T00:43:15;98373.50;;;-8.36;80.54
43741;BME280;29352;48.708;9.290;2023-03-04T00:45:40;98374.41;;;-8.37;82.73
43741;BME280;29352;48.708;9.290;2023-03-04T00:48:06;98372.31;;;-8.00;81.08
43741;BME280;29352;48.708;9.290;2023-03-04T00:50:31;98369.28;;;-8.23;81.29
43741;BME280;29352;48.708;9.290;2023-03-04T00:52:57;98366.03;;;-8.26;81.58
43741;BME280;29352;48.708;9.290;2023-03-04T00:55:22;98370.56;;;-8.30;79.86
43741;BME280;29352;48.708;9.290;2023-03-04T00:57:48;98369.53;;;-8.27;79.83
43741;BME280;29352;48.708;9.290;2023-03-04T01:00:14;98372.50;;;-8.34;80.75
43741;BME280;29352;48.708;9.290;2023-03-04T01:02:40;98363.34;;;-8.25;80.61
43741;BME280;29352;48.708;9.290;2023-03-04T01:05:05;98358.78;;;-8.36;80.08
43741;BME280;29352;48.708;9.290;2023-03-04T01:07:31;98364.06;;;-8.37;79.85
43741;BME280;29352;48.708;9.290;2023-03-04T01:09:57;98362.69;;;-8.13;78.63
43741;BME280;29352;48.708;9.290;2023-03-04T01:12:22;98368.56;;;-8.41;78.79
43741;BME280;29352;48.708;9.290;2023-03-04T01:14:48;98368.06;;;-8.47;79.14
43741;BME280;29352;48.708;9.290;2023-03-04T01:17:13;98363.38;;;-8.57;79.36
43741;BME280;29352;48.708;9.290;2023-03-04T01:19:39;98366.91;;;-8.58;79.36
43741;BME280;29352;48.708;9.290;2023-03-04T01:22:04;98365.06;;;-8.55;78.38
43741;BME280;29352;48.708;9.290;2023-03-04T01:24:29;98356.47;;;-8.72;78.83
43741;BME280;29352;48.708;9.290;2023-03-04T01:26:55;98352.59;;;-8.49;78.15
43741;BME280;29352;48.708;9.290;2023-03-04T01:29:21;98360.03;;;-8.59;79.01
43741;BME280;29352;48.708;9.290;2023-03-04T01:31:47;98355.53;;;-8.55;79.45
43741;BME280;29352;48.708;9.290;2023-03-04T01:34:12;98353.88;;;-8.72;79.70
43741;BME280;29352;48.708;9.290;2023-03-04T01:36:38;98348.22;;;-8.78;81.60
43741;BME280;29352;48.708;9.290;2023-03-04T01:39:04;98355.09;;;-8.79;83.40
43741;BME280;29352;48.708;9.290;2023-03-04T01:41:30;98349.59;;;-8.41;81.01
43741;BME280;29352;48.708;9.290;2023-03-04T01:43:59;98348.34;;;-8.66;80.96
43741;BME280;29352;48.708;9.290;2023-03-04T01:46:26;98354.28;;;-8.79;80.02
43741;BME280;29352;48.708;9.290;2023-03-04T01:48:54;98357.03;;;-8.83;80.65
43741;BME280;29352;48.708;9.290;2023-03-04T01:51:20;98347.25;;;-8.93;81.00
43741;BME280;29352;48.708;9.290;2023-03-04T01:53:48;98348.34;;;-8.97;80.84
43741;BME280;29352;48.708;9.290;2023-03-04T01:56:35;98344.63;;;-8.92;80.78
43741;BME280;29352;48.708;9.290;2023-03-04T01:59:17;98353.88;;;-8.88;79.97
43741;BME280;29352;48.708;9.290;2023-03-04T02:01:48;98343.53;;;-8.88;80.89
43741;BME280;29352;48.708;9.290;2023-03-04T02:04:18;98340.09;;;-9.04;80.91
43741;BME280;29352;48.708;9.290;2023-03-04T02:06:48;98338.41;;;-9.05;80.36
43741;BME280;29352;48.708;9.290;2023-03-04T02:09:16;98345.47;;;-9.24;82.07
43741;BME280;29352;48.708;9.290;2023-03-04T02:11:43;98337.50;;;-9.20;81.86
43741;BME280;29352;48.708;9.290;2023-03-04T02:14:11;98334.78;;;-9.34;81.29
43741;BME280;29352;48.708;9.290;2023-03-04T02:16:38;98341.31;;;-9.27;81.96
43741;BME280;29352;48.708;9.290;2023-03-04T02:19:15;98336.66;;;-9.20;81.47
43741;BME280;29352;48.708;9.290;2023-03-04T02:22:02;98337.09;;;-9.45;82.06
43741;BME280;29352;48.708;9.290;2023-03-04T02:24:37;98333.09;;;-9.35;81.83
43741;BME280;29352;48.708;9.290;2023-03-04T02:27:07;98332.63;;;-9.26;81.48
43741;BME280;29352;48.708;9.290;2023-03-04T02:29:33;98337.88;;;-9.27;82.05
43741;BME280;29352;48.708;9.290;2023-03-04T02:31:59;98341.75;;;-9.19;81.99
43741;BME280;29352;48.708;9.290;2023-03-04T02:34:34;98331.44;;;-9.03;81.63
43741;BME280;29352;48.708;9.290;2023-03-04T02:37:02;98341.84;;;-9.05;81.47
43741;BME280;29352;48.708;9.290;2023-03-04T02:39:35;98335.41;;;-8.97;81.27
43741;BME280;29352;48.708;9.290;2023-03-04T02:42:04;98335.56;;;-8.69;80.88
43741;BME280;29352;48.708;9.290;2023-03-04T02:44:39;98340.78;;;-8.85;80.24
43741;BME280;29352;48.708;9.290;2023-03-04T02:47:12;98333.31;;;-9.07;81.33
43741;BME280;29352;48.708;9.290;2023-03-04T02:49:40;98345.47;;;-9.24;81.45
43741;BME280;29352;48.708;9.290;2023-03-04T02:52:07;98346.91;;;-9.19;81.86
43741;BME280;29352;48.708;9.290;2023-03-04T02:54:38;98337.53;;;-9.37;82.19
43741;BME280;29352;48.708;9.290;2023-03-04T02:57:07;98343.63;;;-9.56;82.05
43741;BME280;29352;48.708;9.290;2023-03-04T02:59:35;98337.09;;;-9.45;81.69
43741;BME280;29352;48.708;9.290;2023-03-04T03:02:01;98345.75;;;-9.46;81.94
43741;BME280;29352;48.708;9.290;2023-03-04T03:04:28;98351.44;;;-9.40;81.17
43741;BME280;29352;48.708;9.290;2023-03-04T03:06:54;98343.91;;;-9.27;82.43
43741;BME280;29352;48.708;9.290;2023-03-04T03:09:20;98347.38;;;-9.28;81.39
43741;BME280;29352;48.708;9.290;2023-03-04T03:11:46;98344.47;;;-9.22;80.61
43741;BME280;29352;48.708;9.290;2023-03-04T03:14:12;98349.94;;;-9.44;80.37
43741;BME280;29352;48.708;9.290;2023-03-04T03:16:37;98349.28;;;-9.47;79.99
43741;BME280;29352;48.708;9.290;2023-03-04T03:19:03;98347.41;;;-9.45;81.31
43741;BME280;29352;48.708;9.290;2023-03-04T03:21:28;98342.25;;;-9.45;81.61
43741;BME280;29352;48.708;9.290;2023-03-04T03:23:54;98342.34;;;-9.47;82.46
43741;BME280;29352;48.708;9.290;2023-03-04T03:26:19;98344.53;;;-9.39;81.57
43741;BME280;29352;48.708;9.290;2023-03-04T03:28:46;98347.13;;;-9.39;81.76
43741;BME280;29352;48.708;9.290;2023-03-04T03:31:12;98339.88;;;-9.33;81.36
43741;BME280;29352;48.708;9.290;2023-03-04T03:33:38;98342.75;;;-9.55;81.03
43741;BME280;29352;48.708;9.290;2023-03-04T03:36:04;98352.84;;;-9.50;80.50
43741;BME280;29352;48.708;9.290;2023-03-04T03:38:30;98342.25;;;-9.45;80.30
43741;BME280;29352;48.708;9.290;2023-03-04T03:40:55;98348.22;;;-9.27;80.36
43741;BME280;29352;48.708;9.290;2023-03-04T03:43:20;98345.75;;;-9.46;80.32
43741;BME280;29352;48.708;9.290;2023-03-04T03:45:46;98336.78;;;-9.39;80.12
43741;BME280;29352;48.708;9.290;2023-03-04T03:48:11;98337.72;;;-9.58;81.13
43741;BME280;29352;48.708;9.290;2023-03-04T03:50:37;98338.44;;;-9.71;80.06
43741;BME280;29352;48.708;9.290;2023-03-04T03:53:03;98334.69;;;-9.66;81.17
43741;BME280;29352;48.708;9.290;2023-03-04T03:55:28;98344.00;;;-9.79;80.63
43741;BME280;29352;48.708;9.290;2023-03-04T03:57:54;98340.59;;;-9.46;79.30
43741;BME280;29352;48.708;9.290;2023-03-04T04:00:20;98339.25;;;-9.71;79.58
43741;BME280;29352;48.708;9.290;2023-03-04T04:02:45;98344.19;;;-9.66;79.89
43741;BME280;29352;48.708;9.290;2023-03-04T04:05:11;98342.59;;;-9.86;80.05
43741;BME280;29352;48.708;9.290;2023-03-04T04:07:38;98339.56;;;-9.77;79.91
43741;BME280;29352;48.708;9.290;2023-03-04T04:10:05;98345.66;;;-9.78;80.10
43741;BME280;29352;48.708;9.290;2023-03-04T04:12:31;98345.50;;;-9.75;80.63
43741;BME280;29352;48.708;9.290;2023-03-04T04:14:56;98340.63;;;-9.81;80.56
43741;BME280;29352;48.708;9.290;2023-03-04T04:17:22;98344.88;;;-9.80;80.96
43741;BME280;29352;48.708;9.290;2023-03-04T04:19:47;98342.00;;;-9.91;81.58
43741;BME280;29352;48.708;9.290;2023-03-04T04:22:16;98345.50;;;-9.92;80.47
43741;BME280;29352;48.708;9.290;2023-03-04T04:24:43;98348.69;;;-10.05;79.74
43741;BME280;29352;48.708;9.290;2023-03-04T04:27:10;98347.75;;;-9.86;79.03
43741;BME280;29352;48.708;9.290;2023-03-04T04:29:36;98348.84;;;-9.90;78.00
43741;BME280;29352;48.708;9.290;2023-03-04T04:32:02;98348.75;;;-10.23;79.13
43741;BME280;29352;48.708;9.290;2023-03-04T04:34:28;98347.16;;;-10.26;79.49
43741;BME280;29352;48.708;9.290;2023-03-04T04:36:54;98346.72;;;-9.99;80.65
43741;BME280;29352;48.708;9.290;2023-03-04T04:39:20;98345.66;;;-10.13;81.32
43741;BME280;29352;48.708;9.290;2023-03-04T04:41:46;98342.16;;;-10.12;81.38
43741;BME280;29352;48.708;9.290;2023-03-04T04:44:13;98345.28;;;-10.05;82.23
43741;BME280;29352;48.708;9.290;2023-03-04T04:46:40;98339.88;;;-10.18;81.10
43741;BME280;29352;48.708;9.290;2023-03-04T04:49:06;98350.88;;;-10.14;80.81
43741;BME280;29352;48.708;9.290;2023-03-04T04:51:33;98351.72;;;-10.31;80.36
43741;BME280;29352;48.708;9.290;2023-03-04T04:54:02;98349.28;;;-10.34;81.64
43741;BME280;29352;48.708;9.290;2023-03-04T04:56:28;98349.47;;;-10.39;81.91
43741;BME280;29352;48.708;9.290;2023-03-04T04:58:59;98352.28;;;-10.43;82.75
43741;BME280;29352;48.708;9.290;2023-03-04T05:01:28;98353.88;;;-10.58;83.45
43741;BME280;29352;48.708;9.290;2023-03-04T05:03:54;98359.34;;;-10.47;82.51
43741;BME280;29352;48.708;9.290;2023-03-04T05:06:21;98358.41;;;-10.27;81.87
43741;BME280;29352;48.708;9.290;2023-03-04T05:08:48;98353.66;;;-10.36;81.43
43741;BME280;29352;48.708;9.290;2023-03-04T05:11:14;98358.53;;;-10.30;80.71
43741;BME280;29352;48.708;9.290;2023-03-04T05:13:40;98358.53;;;-10.30;79.38
43741;BME280;29352;48.708;9.290;2023-03-04T05:16:06;98359.13;;;-10.42;80.63
43741;BME280;29352;48.708;9.290;2023-03-04T05:18:32;98351.88;;;-10.34;80.98
43741;BME280;29352;48.708;9.290;2023-03-04T05:21:00;98361.09;;;-10.48;81.26
43741;BME280;29352;48.708;9.290;2023-03-04T05:23:31;98352.72;;;-10.53;82.09
43741;BME280;29352;48.708;9.290;2023-03-04T05:25:59;98352.16;;;-10.59;81.78
43741;BME280;29352;48.708;9.290;2023-03-04T05:28:25;98359.16;;;-10.61;82.61
43741;BME280;29352;48.708;9.290;2023-03-04T05:30:51;98358.22;;;-10.41;82.19
43741;BME280;29352;48.708;9.290;2023-03-04T05:33:18;98362.06;;;-10.31;79.86
43741;BME280;29352;48.708;9.290;2023-03-04T05:35:45;98358.19;;;-10.59;80.18
43741;BME280;29352;48.708;9.290;2023-03-04T05:38:14;98358.78;;;-10.90;80.39
43741;BME280;29352;48.708;9.290;2023-03-04T05:40:43;98352.00;;;-10.92;81.62
43741;BME280;29352;48.708;9.290;2023-03-04T05:43:10;98356.09;;;-10.88;82.30
43741;BME280;29352;48.708;9.290;2023-03-04T05:45:36;98361.69;;;-10.79;83.05
43741;BME280;29352;48.708;9.290;2023-03-04T05:48:02;98362.78;;;-10.84;82.79
43741;BME280;29352;48.708;9.290;2023-03-04T05:50:29;98367.31;;;-10.70;82.48
43741;BME280;29352;48.708;9.290;2023-03-04T05:52:54;98364.88;;;-10.55;82.14
43741;BME280;29352;48.708;9.290;2023-03-04T05:55:20;98363.69;;;-10.48;81.59
43741;BME280;29352;48.708;9.290;2023-03-04T05:57:46;98366.94;;;-10.44;82.04
43741;BME280;29352;48.708;9.290;2023-03-04T06:00:13;98366.75;;;-10.58;81.67
43741;BME280;29352;48.708;9.290;2023-03-04T06:02:41;98366.69;;;-10.57;81.99
43741;BME280;29352;48.708;9.290;2023-03-04T06:05:09;98376.25;;;-10.59;80.54
43741;BME280;29352;48.708;9.290;2023-03-04T06:07:36;98379.31;;;-10.51;81.58
43741;BME280;29352;48.708;9.290;2023-03-04T06:10:01;98379.41;;;-10.35;80.43
43741;BME280;29352;48.708;9.290;2023-03-04T06:12:27;98385.47;;;-10.36;79.22
43741;BME280;29352;48.708;9.290;2023-03-04T06:14:53;98379.41;;;-10.90;80.84
43741;BME280;29352;48.708;9.290;2023-03-04T06:17:19;98386.34;;;-10.54;79.79
43741;BME280;29352;48.708;9.290;2023-03-04T06:19:45;98389.34;;;-10.44;80.23
43741;BME280;29352;48.708;9.290;2023-03-04T06:22:11;98390.63;;;-10.17;79.55
43741;BME280;29352;48.708;9.290;2023-03-04T06:24:36;98394.09;;;-10.01;77.99
43741;BME280;29352;48.708;9.290;2023-03-04T06:27:02;98393.81;;;-9.77;77.34
43741;BME280;29352;48.708;9.290;2023-03-04T06:29:28;98386.47;;;-9.17;76.82
43741;BME280;29352;48.708;9.290;2023-03-04T06:31:53;98393.78;;;-9.42;76.81
43741;BME280;29352;48.708;9.290;2023-03-04T06:34:19;98398.53;;;-9.17;76.23
43741;BME280;29352;48.708;9.290;2023-03-04T06:36:44;98394.22;;;-8.68;74.75
43741;BME280;29352;48.708;9.290;2023-03-04T06:39:10;98395.91;;;-8.05;72.60
43741;BME280;29352;48.708;9.290;2023-03-04T06:41:36;98397.06;;;-7.95;72.41
43741;BME280;29352;48.708;9.290;2023-03-04T06:44:03;98410.22;;;-6.95;70.34
43741;BME280;29352;48.708;9.290;2023-03-04T06:46:28;98414.41;;;-6.51;70.28
43741;BME280;29352;48.708;9.290;2023-03-04T06:48:54;98404.91;;;-6.37;69.52
43741;BME280;29352;48.708;9.290;2023-03-04T06:51:21;98408.28;;;-6.35;69.34
43741;BME280;29352;48.708;9.290;2023-03-04T06:53:46;98408.75;;;-5.89;68.28
43741;BME280;29352;48.708;9.290;2023-03-04T06:56:15;98414.19;;;-5.79;67.03
43741;BME280;29352;48.708;9.290;2023-03-04T06:58:42;98407.69;;;-5.59;68.09
43741;BME280;29352;48.708;9.290;2023-03-04T07:01:20;98419.13;;;-5.62;65.41
43741;BME280;29352;48.708;9.290;2023-03-04T07:03:52;98420.28;;;-6.20;67.46
43741;BME280;29352;48.708;9.290;2023-03-04T07:06:22;98413.75;;;-6.54;67.88
43741;BME280;29352;48.708;9.290;2023-03-04T07:08:50;98423.53;;;-7.01;69.85
43741;BME280;29352;48.708;9.290;2023-03-04T07:11:18;98435.03;;;-8.10;73.65
43741;BME280;29352;48.708;9.290;2023-03-04T07:13:45;98435.34;;;-8.00;73.96
43741;BME280;29352;48.708;9.290;2023-03-04T07:16:16;98425.63;;;-7.96;74.21
43741;BME280;29352;48.708;9.290;2023-03-04T07:18:44;98433.88;;;-8.20;75.76
43741;BME280;29352;48.708;9.290;2023-03-04T07:21:11;98436.63;;;-8.23;80.53
43741;BME280;29352;48.708;9.290;2023-03-04T07:23:39;98443.72;;;-8.11;81.25
43741;BME280;29352;48.708;9.290;2023-03-04T07:26:05;98439.09;;;-7.90;81.51
43741;BME280;29352;48.708;9.290;2023-03-04T07:28:31;98446.72;;;-7.56;81.45
43741;BME280;29352;48.708;9.290;2023-03-04T07:31:20;98449.06;;;-7.38;81.14
43741;BME280;29352;48.708;9.290;2023-03-04T07:33:49;98449.97;;;-7.08;80.94
43741;BME280;29352;48.708;9.290;2023-03-04T07:36:17;98455.81;;;-7.05;80.64
43741;BME280;29352;48.708;9.290;2023-03-04T07:38:45;98458.44;;;-7.21;81.19
43741;BME280;29352;48.708;9.290;2023-03-04T07:41:13;98458.22;;;-7.02;81.24
43741;BME280;29352;48.708;9.290;2023-03-04T07:43:38;98459.56;;;-7.25;81.05
43741;BME280;29352;48.708;9.290;2023-03-04T07:46:05;98456.25;;;-7.12;81.87
43741;BME280;29352;48.708;9.290;2023-03-04T07:48:31;98452.06;;;-7.29;80.89
43741;BME280;29352;48.708;9.290;2023-03-04T07:51:03;98452.00;;;-6.99;81.32
43741;BME280;29352;48.708;9.290;2023-03-04T07:53:35;98457.16;;;-7.14;81.86
43741;BME280;29352;48.708;9.290;2023-03-04T07:56:02;98464.13;;;-7.00;81.86
43741;BME280;29352;48.708;9.290;2023-03-04T07:58:28;98470.59;;;-7.21;81.91
43741;BME280;29352;48.708;9.290;2023-03-04T08:00:55;98469.78;;;-6.93;81.72
43741;BME280;29352;48.708;9.290;2023-03-04T08:03:20;98465.13;;;-7.17;82.39
43741;BME280;29352;48.708;9.290;2023-03-04T08:05:45;98467.19;;;-6.79;81.52
43741;BME280;29352;48.708;9.290;2023-03-04T08:08:11;98474.47;;;-7.28;82.41
43741;BME280;29352;48.708;9.290;2023-03-04T08:10:36;98479.34;;;-7.08;82.48
43741;BME280;29352;48.708;9.290;2023-03-04T08:13:04;98482.28;;;-7.14;82.62
43741;BME280;29352;48.708;9.290;2023-03-04T08:15:31;98484.53;;;-7.08;82.90
43741;BME280;29352;48.708;9.290;2023-03-04T08:17:57;98479.53;;;-6.97;82.70
43741;BME280;29352;48.708;9.290;2023-03-04T08:20:23;98482.56;;;-7.04;81.86
43741;BME280;29352;48.708;9.290;2023-03-04T08:22:50;98489.06;;;-6.97;82.61
43741;BME280;29352;48.708;9.290;2023-03-04T08:25:15;98488.47;;;-7.17;83.01
43741;BME280;29352;48.708;9.290;2023-03-04T08:27:41;98495.06;;;-7.11;82.50
43741;BME280;29352;48.708;9.290;2023-03-04T08:30:07;98492.97;;;-7.04;82.01
43741;BME280;29352;48.708;9.290;2023-03-04T08:32:33;98492.03;;;-6.89;81.82
43741;BME280;29352;48.708;9.290;2023-03-04T08:34:59;98490.03;;;-6.84;81.96
43741;BME280;29352;48.708;9.290;2023-03-04T08:37:27;98497.34;;;-6.76;81.81
43741;BME280;29352;48.708;9.290;2023-03-04T08:39:53;98501.53;;;-6.88;81.73
43741;BME280;29352;48.708;9.290;2023-03-04T08:42:19;98498.34;;;-6.79;81.74
43741;BME280;29352;48.708;9.290;2023-03-04T08:44:44;98505.22;;;-6.78;81.04
43741;BME280;29352;48.708;9.290;2023-03-04T08:47:10;98490.31;;;-6.60;81.44
43741;BME280;29352;48.708;9.290;2023-03-04T08:49:36;98498.34;;;-6.64;80.97
43741;BME280;29352;48.708;9.290;2023-03-04T08:52:01;98500.00;;;-6.92;81.28
43741;BME280;29352;48.708;9.290;2023-03-04T08:54:27;98503.38;;;-6.61;80.42
43741;BME280;29352;48.708;9.290;2023-03-04T08:56:53;98505.97;;;-6.76;81.16
43741;BME280;29352;48.708;9.290;2023-03-04T08:59:18;98503.81;;;-6.40;79.91
43741;BME280;29352;48.708;9.290;2023-03-04T09:01:43;98502.63;;;-6.63;81.16
43741;BME280;29352;48.708;9.290;2023-03-04T09:04:09;98500.28;;;-6.25;79.61
43741;BME280;29352;48.708;9.290;2023-03-04T09:06:34;98502.63;;;-6.35;80.05
43741;BME280;29352;48.708;9.290;2023-03-04T09:09:00;98505.75;;;-6.30;79.15
43741;BME280;29352;48.708;9.290;2023-03-04T09:11:26;98507.16;;;-6.38;79.42
43741;BME280;29352;48.708;9.290;2023-03-04T09:13:51;98508.34;;;-6.30;78.85
43741;BME280;29352;48.708;9.290;2023-03-04T09:16:18;98514.59;;;-6.47;78.75
43741;BME280;29352;48.708;9.290;2023-03-04T09:18:43;98507.66;;;-6.46;79.28
43741;BME280;29352;48.708;9.290;2023-03-04T09:21:10;98520.22;;;-6.40;79.17
43741;BME280;29352;48.708;9.290;2023-03-04T09:23:36;98520.22;;;-6.40;79.98
43741;BME280;29352;48.708;9.290;2023-03-04T09:26:20;98522.94;;;-6.27;79.59
43741;BME280;29352;48.708;9.290;2023-03-04T09:28:53;98520.81;;;-6.35;79.59
43741;BME280;29352;48.708;9.290;2023-03-04T09:31:21;98517.09;;;-6.59;80.32
43741;BME280;29352;48.708;9.290;2023-03-04T09:33:47;98514.41;;;-6.29;79.78
43741;BME280;29352;48.708;9.290;2023-03-04T09:36:15;98518.50;;;-6.39;80.42
43741;BME280;29352;48.708;9.290;2023-03-04T09:38:42;98510.25;;;-6.46;80.76
43741;BME280;29352;48.708;9.290;2023-03-04T09:41:22;98513.09;;;-6.22;79.54
43741;BME280;29352;48.708;9.290;2023-03-04T09:43:52;98509.84;;;-6.26;79.47
43741;BME280;29352;48.708;9.290;2023-03-04T09:46:33;98508.53;;;-6.19;79.57
43741;BME280;29352;48.708;9.290;2023-03-04T09:49:03;98505.09;;;-5.78;79.05
43741;BME280;29352;48.708;9.290;2023-03-04T09:56:58;98499.34;;;-5.56;76.59
43741;BME280;29352;48.708;9.290;2023-03-04T09:59:43;98505.91;;;-5.50;76.89
43741;BME280;29352;48.708;9.290;2023-03-04T10:05:25;98506.53;;;-5.59;76.20
43741;BME280;29352;48.708;9.290;2023-03-04T10:07:59;98509.13;;;-5.47;75.84
43741;BME280;29352;48.708;9.290;2023-03-04T10:10:39;98510.31;;;-5.38;75.49
43741;BME280;29352;48.708;9.290;2023-03-04T10:13:17;98503.50;;;-5.13;75.06
43741;BME280;29352;48.708;9.290;2023-03-04T10:16:04;98505.69;;;-5.20;75.52
43741;BME280;29352;48.708;9.290;2023-03-04T10:18:40;98502.75;;;-5.15;75.06
43741;BME280;29352;48.708;9.290;2023-03-04T10:21:22;98504.81;;;-5.73;76.29
43741;BME280;29352;48.708;9.290;2023-03-04T10:23:53;98508.66;;;-5.39;76.30
43741;BME280;29352;48.708;9.290;2023-03-04T10:26:20;98494.66;;;-5.51;75.96
43741;BME280;29352;48.708;9.290;2023-03-04T10:28:48;98494.41;;;-5.33;74.95
43741;BME280;29352;48.708;9.290;2023-03-04T10:31:26;98491.38;;;-5.40;74.73
43741;BME280;29352;48.708;9.290;2023-03-04T10:33:57;98498.34;;;-5.40;75.69
43741;BME280;29352;48.708;9.290;2023-03-04T10:42:35;98503.69;;;-5.16;74.81
43741;BME280;29352;48.708;9.290;2023-03-04T10:44:52;98494.56;;;-4.96;74.23
43741;BME280;29352;48.708;9.290;2023-03-04T10:47:28;98491.09;;;-4.46;71.99
43741;BME280;29352;48.708;9.290;2023-03-04T10:49:58;98486.81;;;-4.21;70.69
43741;BME280;29352;48.708;9.290;2023-03-04T10:52:37;98477.00;;;-4.31;70.18
43741;BME280;29352;48.708;9.290;2023-03-04T10:55:24;98479.56;;;-4.05;69.05
43741;BME280;29352;48.708;9.290;2023-03-04T10:57:55;98469.84;;;-3.90;69.23
43741;BME280;29352;48.708;9.290;2023-03-04T11:00:31;98465.28;;;-3.99;69.42
43741;BME280;29352;48.708;9.290;2023-03-04T11:06:24;98467.16;;;-3.53;66.80
43741;BME280;29352;48.708;9.290;2023-03-04T11:08:54;98463.13;;;-3.46;67.28
43741;BME280;29352;48.708;9.290;2023-03-04T11:11:30;98454.16;;;-3.66;68.30
43741;BME280;29352;48.708;9.290;2023-03-04T11:17:14;98457.75;;;-3.56;68.77
43741;BME280;29352;48.708;9.290;2023-03-04T11:19:48;98451.50;;;-3.53;68.25
43741;BME280;29352;48.708;9.290;2023-03-04T11:22:21;98463.13;;;-3.46;67.84
43741;BME280;29352;48.708;9.290;2023-03-04T11:25:06;98451.41;;;-3.41;68.04
43741;BME280;29352;48.708;9.290;2023-03-04T11:28:25;98450.69;;;-3.43;66.59
43741;BME280;29352;48.708;9.290;2023-03-04T11:34:08;98440.88;;;-3.63;66.76
43741;BME280;29352;48.708;9.290;2023-03-04T11:39:53;98443.28;;;-3.60;66.02
43741;BME280;29352;48.708;9.290;2023-03-04T11:42:44;98432.06;;;-3.73;67.03
43741;BME280;29352;48.708;9.290;2023-03-04T11:45:22;98437.06;;;-3.70;67.32
43741;BME280;29352;48.708;9.290;2023-03-04T11:53:29;98431.38;;;-3.75;67.52
43741;BME280;29352;48.708;9.290;2023-03-04T11:56:26;98428.25;;;-3.81;66.75
43741;BME280;29352;48.708;9.290;2023-03-04T12:02:16;98421.75;;;-3.75;66.65
43741;BME280;29352;48.708;9.290;2023-03-04T12:10:24;98408.13;;;-3.78;67.45
43741;BME280;29352;48.708;9.290;2023-03-04T12:15:54;98408.38;;;-3.70;66.29
43741;BME280;29352;48.708;9.290;2023-03-04T12:27:23;98382.81;;;-3.43;65.11
43741;BME280;29352;48.708;9.290;2023-03-04T12:39:14;98372.66;;;-3.35;65.70
43741;BME280;29352;48.708;9.290;2023-03-04T12:50:50;98355.22;;;-3.34;65.74
43741;BME280;29352;48.708;9.290;2023-03-04T12:57:10;98357.09;;;-3.47;65.78
43741;BME280;29352;48.708;9.290;2023-03-04T12:59:21;98348.41;;;-3.59;67.00
43741;BME280;29352;48.708;9.290;2023-03-04T13:10:50;98339.31;;;-3.20;65.02
43741;BME280;29352;48.708;9.290;2023-03-04T13:13:35;98347.94;;;-3.53;66.06
43741;BME280;29352;48.708;9.290;2023-03-04T13:16:41;98350.59;;;-3.30;65.14
43741;BME280;29352;48.708;9.290;2023-03-04T13:35:59;98339.44;;;-3.10;66.24
43741;BME280;29352;48.708;9.290;2023-03-04T13:43:43;98337.97;;;-3.59;65.58
43741;BME280;29352;48.708;9.290;2023-03-04T13:54:26;98335.69;;;-3.64;65.77
43741;BME280;29352;48.708;9.290;2023-03-04T13:57:18;98348.16;;;-3.56;67.53
43741;BME280;29352;48.708;9.290;2023-03-04T13:59:53;98346.47;;;-3.79;67.77
43741;BME280;29352;48.708;9.290;2023-03-04T14:02:22;98341.53;;;-4.19;67.88
43741;BME280;29352;48.708;9.290;2023-03-04T14:07:25;98346.03;;;-3.51;67.02
43741;BME280;29352;48.708;9.290;2023-03-04T14:09:55;98338.09;;;-3.49;66.34
43741;BME280;29352;48.708;9.290;2023-03-04T14:12:30;98340.00;;;-3.51;66.16
43741;BME280;29352;48.708;9.290;2023-03-04T14:17:49;98345.72;;;-3.93;67.57
43741;BME280;29352;48.708;9.290;2023-03-04T14:20:38;98340.22;;;-4.25;66.80
43741;BME280;29352;48.708;9.290;2023-03-04T14:23:25;98344.09;;;-4.31;67.50
43741;BME280;29352;48.708;9.290;2023-03-04T14:26:01;98334.84;;;-4.35;67.22
43741;BME280;29352;48.708;9.290;2023-03-04T14:28:28;98335.13;;;-4.15;67.00
43741;BME280;29352;48.708;9.290;2023-03-04T14:30:56;98334.69;;;-4.09;66.83
43741;BME280;29352;48.708;9.290;2023-03-04T14:33:27;98321.28;;;-4.40;67.64
43741;BME280;29352;48.708;9.290;2023-03-04T14:35:58;98325.78;;;-3.94;67.05
43741;BME280;29352;48.708;9.290;2023-03-04T14:41:06;98311.63;;;-4.27;67.08
43741;BME280;29352;48.708;9.290;2023-03-04T14:43:52;98314.63;;;-3.96;66.31
43741;BME280;29352;48.708;9.290;2023-03-04T14:46:59;98308.78;;;-4.35;67.71
43741;BME280;29352;48.708;9.290;2023-03-04T14:49:35;98313.28;;;-4.25;66.98
43741;BME280;29352;48.708;9.290;2023-03-04T14:52:03;98309.59;;;-4.10;67.72
43741;BME280;29352;48.708;9.290;2023-03-04T14:54:36;98300.53;;;-4.53;68.14
43741;BME280;29352;48.708;9.290;2023-03-04T14:57:21;98307.94;;;-4.11;67.56
43741;BME280;29352;48.708;9.290;2023-03-04T14:59:51;98306.22;;;-4.47;67.82
43741;BME280;29352;48.708;9.290;2023-03-04T15:02:33;98296.31;;;-4.66;68.32
43741;BME280;29352;48.708;9.290;2023-03-04T15:07:56;98296.66;;;-4.84;68.51
43741;BME280;29352;48.708;9.290;2023-03-04T15:10:28;98301.88;;;-4.84;69.52
43741;BME280;29352;48.708;9.290;2023-03-04T15:12:59;98303.97;;;-4.89;69.68
43741;BME280;29352;48.708;9.290;2023-03-04T15:15:31;98297.50;;;-4.83;69.20